NCAR-RAP Real-Time Weather Data

Output produced by METARs form (21 May 2019  11:22 UTC)
found at http://weather.rap.ucar.edu/surface/
 
RJTY 211056Z AUTO 03007KT 10SM BKN008 OVC018 18/17 A2965 RMK AO2 CIG 007 RWY18 SLP041 T01840174 FZRANO $
RJTY 211011Z AUTO 04009KT 10SM BKN007 OVC016 19/18 A2963 RMK AO2 CIG 005 RWY18 SLP034 FZRANO $
RJTY 210956Z AUTO 04008KT 10SM SCT007 BKN012 OVC018 19/19 A2962 RMK AO2 CIG 007V016 CIG 005 RWY18 SLP030 T01930185 FZRANO $
RJTY 210941Z AUTO 07005KT 10SM BKN007 OVC012 20/19 A2961 RMK AO2 CIG 007V009 SLP027 FZRANO $
RJTY 210856Z AUTO 07006KT 10SM OVC009 20/19 A2960 RMK AO2 CIG 007 RWY18 SLP024 T01980186 50005 FZRANO $
RJTY 210842Z AUTO 07006KT 10SM BKN008 OVC040 20/19 A2959 RMK AO2 CIG 008V041 BKN V SCT CIG 007 RWY18 SLP020 FZRANO $
RJTY 210757Z AUTO 00000KT 10SM FEW010 OVC039 20/19 A2959 RMK AO2 SLP020 FZRANO $
RJTY 210756Z AUTO 14003KT 10SM OVC039 20/19 A2959 RMK AO2 SLP020 T02010186 FZRANO $
RJTY 210726Z AUTO 04006KT 10SM SCT029 OVC037 20/19 A2959 RMK AO2 SLP020 FZRANO $
RJTY 210656Z AUTO 06003KT 10SM FEW008 SCT020 OVC027 20/19 A2959 RMK AO2 CIG 020V027 CIG 019 RWY18 SLP020 T01970189 FZRANO $
RJTY 210620Z AUTO 02006KT 10SM FEW009 OVC021 19/19 A2959 RMK AO2 CIG 019 RWY18 SLP020 FZRANO $
RJTY 210611Z AUTO 02006KT 10SM OVC020 19/19 A2959 RMK AO2 CIG 019 RWY18 SLP020 FZRANO $
RJTY 210556Z AUTO 01005KT 10SM OVC018 19/19 A2958 RMK AO2 RAE18DZB18E19 SLP017 P0001 60180 T01920187 10200 20180 58002 FZRANO $
RJTY 210534Z AUTO 02004KT 10SM OVC015 19/19 A2959 RMK AO2 RAE18DZB18E19 SLP020 FZRANO $
RJTY 210519Z AUTO 04005KT 10SM OVC014 19/18 A2958 RMK AO2 RAE18DZB18E19 SLP017 FZRANO $
RJTY 210511Z AUTO 03006KT 10SM -RA OVC015 19/18 A2958 RMK AO2 CIG 014 RWY18 SLP017 FZRANO $
RJTY 210456Z AUTO 04007KT 10SM -RA BKN014 OVC024 18/18 A2958 RMK AO2 SLP017 P0018 T01830180 FZRANO $
RJTY 210455Z AUTO 04006KT 10SM -RA BKN014 OVC024 18/18 A2958 RMK AO2 SLP017 FZRANO $
RJTY 210440Z AUTO 04007KT 9SM -RA BKN015 OVC024 18/18 A2959 RMK AO2 CIG 015V024 BKN V SCT SLP021 FZRANO $
RJTY 210425Z AUTO 06008KT 4SM RA BR FEW003 SCT015 OVC020 18/18 A2958 RMK AO2 CIG 003V020 CIG 002 RWY18 SLP017 FZRANO $
RJTY 210410Z AUTO 01014G22KT 4SM +RA BR BKN003 OVC014 18/18 A2959 RMK AO2 WSHFT 0355 CIG 001 RWY18 SLP021 FZRANO $
RJTY 210356Z AUTO 05012G16KT 1 3/8SM +RA BR OVC002 20/19 A2960 RMK AO2 CIG 001 RWY18 SLP024 P0070 T01960194 FZRANO $
RJTY 210353Z AUTO 04013G16KT 1 3/8SM +RA BR OVC002 20/20 A2960 RMK AO2 OVC V BKN SLP024 FZRANO $
RJTY 210338Z AUTO 20006KT 1 1/4SM R36/6000FT +RA BR BKN002 20/20 A2959 RMK AO2 SLP021 FZRANO $
RJTY 210326Z AUTO 22012G21KT 1SM R36/4000VP6000FT +RA BR BKN003 OVC019 20/20 A2960 RMK AO2 VIS 1V1 1/2 CIG 003V009 BKN V SCT CIG 002 RWY18 SLP024 FZRANO $
RJTY 210311Z 22014G18KT 1 7/8SM +RA BR SCT003 BKN009 OVC013 20/20 A2960 RMK AO2A VIS 1 7/8V3 CIG 003 RWY18 SLP024 FZRANO $
RJTY 210308Z 21013KT 2SM +RA BR SCT003 BKN009 OVC015 20/20 A2960 RMK VIS 2V4 CIG 003 RWY18 SLP024 FZRANO $
RJTY 210257Z 20015G22KT 2 3/4SM RA BR FEW003 BKN008 BKN012 OVC018 20/20 A2959 RMK BKN008 V OVC CIG 005 RWY18 SLP020 P0021 60092 T02000198 55000 FZRANO $
RJTY 210256Z COR 20019G22KT 2 3/4SM RA FEW003 BKN008 OVC012 20/20 A2959 RMK AO2 PK WND 19035/0158 BKN V OVC CIG 005 RWY18 SLP020 P0020 60091 T02000198 55001 FZRANO $ COR 0303
RJTY 210241Z AUTO 20015G26KT 7SM -RA FEW003 OVC008 20/20 A2959 RMK AO2 CIG 004 RWY18 SLP020 FZRANO $
RJTY 210211Z AUTO 20021G31KT 4SM RA BR FEW003 OVC008 20/20 A2959 RMK AO2 OVC V BKN CIG 003 RWY18 SLP020 FZRANO $
RJTY 210156Z 20019G28KT 2 1/4SM RA BR FEW003 BKN008 OVC014 20/20 A2959 RMK AO2A PK WND 18033/01 BKN V OVC CIG 003 RWY18 SLP020 P0043 T01980196 FZRANO $
RJTY 210141Z 20024G32KT 2 3/4SM RA BR FEW003 BKN008 OVC016 20/20 A2959 RMK AO2A VIS 2 3/4V4 BKN V OVC CIG 003 RWY18 SLP021 FZRANO $
RJTY 210111Z 20023G31KT 1 3/4SM RA BR SCT003 OVC009 20/20 A2959 RMK AO2A CIG 003 RWY18 SLP021 FZRANO $
RJTY 210056Z 20021G33KT 2SM RA BR FEW003 OVC009 20/20 A2959 RMK AO2A PK WND 18036/51 VIS 2V4 CIG 004 RWY18 SLP021 P0028 T01970195 FZRANO $
RJTY 210026Z 19026G33KT 2 3/4SM -RA BR FEW003 BKN009 OVC017 20/20 A2958 RMK AO2A CIG 008V010 BKN V OVC CIG 004 RWY18 SLP017 FZRANO $
RJTY 210011Z 19023G29KT 2 1/2SM -RA BR FEW003 BKN008 BKN013 OVC020 20/20 A2959 RMK AO2A CIG 003 RWY18 SLP021 FZRANO $
RJTY 202356Z 18018G27KT 2SM -RA BR SCT003 BKN008 OVC018 20/20 A2959 RMK AO2A PK WND 16029/28 RAE24RAB24E24RAB27 CIG 003 RWY18 SLP021 P0025 60113 70142 T01950195 10195 20182 57034 FZRANO $
RJTY 202324Z 18019G25KT 2SM RA BR SCT003 BKN008 OVC014 19/19 A2961 RMK AO2A RAE24 CIG 005V008 CIG 003 RWY18 SLP028 FZRANO $
RJTY 202315Z 18013G23KT 2SM -RA BR BKN005 BKN009 OVC015 19/19 A2961 RMK AO2A VIS 2 3/4 RWY18 CIG 003 RWY18 PRESFR SLP028 FZRANO $
RJTY 202256Z 17014G20KT 2SM -RA BR BKN006 OVC019 19/19 A2963 RMK AO2A VIS 2 3/4 RWY18 CIG 003 RWY18 SLP034 P0030 T01890189 FZRANO $
RJTY 202241Z 17011KT 2SM RA BR BKN005 OVC015 19/19 A2964 RMK AO2A VIS 2 3/4 RWY18 CIG 003 RWY18 SLP037 FZRANO $
RJTY 202226Z 16011G20KT 2SM RA BR BKN005 BKN008 OVC014 19/19 A2964 RMK AO2A CIG 003 RWY18 SLP037 FZRANO $
RJTY 202211Z 17012G18KT 2SM -RA BR BKN003 BKN008 OVC013 19/19 A2965 RMK AO2A PRESFR SLP041 FZRANO $
RJTY 202156Z 17011KT 2SM RA BR BKN003 OVC012 19/19 A2967 RMK AO2A SLP047 P0035 T01860186 FZRANO $
RJTY 202144Z 16009KT 2 SM RA BR BKN003 BKN007 OVC012 19/19 A2967 RMK AO2A RAE10RAB14 SLP047 FZRANO $
RJTY 202112Z 16010KT 2SM RA BR BKN006 BKN011 OVC019 19/18 A2969 RMK AO2A CIG 004 RWY18 SLP054 FZRANO $
RJTY 202110Z 16011KT 2 1/2SM RA BR BKN006 OVC016 19/18 A2969 RMK AO2A CIG 004 RWY18 SLP054 FZRANO $
RJTY 202056Z AUTO 16009G17KT 5SM -RA BR BKN006 BKN011 OVC018 19/18 A2969 RMK AO2 CIG 006V008 CIG 004 RWY18 SLP054 P0012 60024 T01850183 57022 FZRANO $
RJTY 202041Z AUTO 16010G19KT 5SM -RA BR BKN008 OVC017 19/18 A2970 RMK AO2 CIG 004 RWY18 SLP058 FZRANO $
RJTY 201956Z AUTO 17016G22KT 6SM -RA BR BKN007 OVC012 18/18 A2970 RMK AO2 PK WND 16026/07 RAE20RAB21E25DZB25E36RAB36 CIG 003 RWY18 SLP058 P0007 T01840182 FZRANO $
RJTY 201921Z AUTO 18017G22KT 10SM -RA BKN007 OVC015 18/18 A2972 RMK AO2 RAE20RAB21 CIG 004 RWY18 SLP064 FZRANO $
RJTY 201920Z AUTO 18016G22KT 10SM BKN007 OVC015 18/18 A2972 RMK AO2 RAE20 CIG 004 RWY18 SLP064 FZRANO $
RJTY 201856Z AUTO 17016G26KT 6SM -RA BR BKN007 OVC011 18/18 A2974 RMK AO2 PK WND 18027/44 RAE36RAB46 BKN V OVC CIG 003 RWY18 SLP071 P0005 T01840181 FZRANO $
RJTY 201846Z AUTO 18018G23KT 10SM -RA BKN008 OVC012 18/18 A2974 RMK AO2 RAE36RAB46 BKN V OVC CIG 005 RWY18 SLP071 FZRANO $
RJTY 201836Z AUTO 18016G22KT 10SM OVC007 18/18 A2975 RMK AO2 RAE36 CIG 004 RWY18 SLP074 FZRANO $
RJTY 201756Z AUTO 17011KT 8SM -RA OVC007 18/18 A2976 RMK AO2 RAE1657DZB00E02RAB02E20DZB20E27DZB35E37RAB37E47RAB52 CIG 003 RWY18 SLP077 P0003 60029 T01810179 10182 20164 57039 FZRANO $
RJTY 201752Z AUTO 17011KT 7SM -RA OVC007 18/18 A2976 RMK AO2 RAE1657DZB00E02RAB02E20DZB20E27DZB35E37RAB37E47RAB52 CIG 005 RWY18 SLP077 FZRANO $
RJTY 201747Z AUTO 17010KT 9SM OVC008 18/18 A2976 RMK AO2 RAE1657DZB00E02RAB02E20DZB20E27DZB35E37RAB37E47 CIG 005 RWY18 SLP077 FZRANO $
RJTY 201735Z AUTO 17008G17KT 10SM -DZ OVC008 18/18 A2977 RMK AO2 RAE1657DZB00E02RAB02E20DZB20E27DZB35 CIG 005 RWY18 SLP081 FZRANO $
RJTY 201727Z AUTO 17012G18KT 10SM OVC007 18/18 A2977 RMK AO2 RAE1657DZB00E02RAB02E20DZB20E27 CIG 004 RWY18 SLP080 FZRANO $
RJTY 201715Z AUTO 18016G22KT 10SM -RA OVC006 18/18 A2978 RMK AO2 RAE1657DZB00E02RAB02 CIG 004 RWY18 SLP083 FZRANO $
RJTY 201700Z AUTO 17013KT 10SM -DZ OVC005 18/18 A2979 RMK AO2 RAE1657DZB00 CIG 003 RWY18 SLP087 FZRANO $
RJTY 201657Z AUTO 17011G20KT 10SM OVC005 18/18 A2980 RMK AO2 RAE57 CIG 003 RWY18 SLP090 FZRANO $
RJTY 201656Z AUTO 17011G20KT 10SM -RA OVC005 18/18 A2980 RMK AO2 RAE03DZB03E09RAB09 CIG 003 RWY18 SLP090 P0005 T01780176 FZRANO $
RJTY 201611Z AUTO 22003KT 5SM -RA BR OVC004 17/17 A2983 RMK AO2 RAE03DZB03E09RAB09 CIG 003 RWY18 SLP101 FZRANO $
RJTY 201556Z AUTO 21003KT 3SM RA BR BKN003 BKN011 OVC016 17/16 A2984 RMK AO2 RAE18DZB18E19RAB19 CIG 003V011 BKN003 V SCT SLP104 P0016 T01680163 FZRANO $
RJTY 201526Z AUTO 26005KT 3SM +RA BR BKN003 OVC008 16/16 A2985 RMK AO2 RAE18DZB18E19RAB19 CIG 003V005 SLP108 FZRANO $
RJTY 201511Z AUTO 00000KT 4SM RA BR OVC008 17/17 A2986 RMK AO2 CIG 007V009 CIG 003 RWY18 SLP111 FZRANO $
RJTY 201456Z AUTO 18010KT 6SM -RA BR BKN009 BKN015 OVC021 17/17 A2987 RMK AO2 RAE08DZB08E12RAB12E24RAB33 CIG 004 RWY18 SLP115 P0004 60005 T01740167 402410132 57029 FZRANO $
RJTY 201433Z AUTO 18007KT 9SM -RA BKN008 OVC014 17/17 A2989 RMK AO2 RAE08DZB08E12RAB12E24RAB33 CIG 004 RWY18 SLP121 FZRANO $
RJTY 201424Z AUTO 20008KT 9SM FEW003 BKN008 OVC017 17/17 A2989 RMK AO2 RAE08DZB08E12RAB12E24 CIG 004 RWY18 SLP122 FZRANO $
RJTY 201411Z AUTO 22005KT 5SM -DZ BR BKN008 OVC012 17/16 A2990 RMK AO2 RAE08DZB08 CIG 008V011 CIG 005 RWY18 SLP125 FZRANO $
RJTY 201356Z AUTO 20008KT 10SM -RA OVC011 17/16 A2991 RMK AO2 DZE1258RAB1258E08DZB08E09DZB14E16RAB16E26DZB26E32RAB50 CIG 007 RWY18 SLP128 P0001 T01710164 FZRANO $
RJTY 201354Z AUTO 20008KT 10SM -RA OVC011 17/16 A2991 RMK AO2 DZE1258RAB1258E08DZB08E09DZB14E16RAB16E26DZB26E32RAB50 CIG 007 RWY18 SLP128 FZRANO $
RJTY 201350Z AUTO 22007KT 10SM -RA OVC012 17/16 A2991 RMK AO2 DZE1258RAB1258E08DZB08E09DZB14E16RAB16E26DZB26E32RAB50 OVC V BKN CIG 007 RWY18 SLP128 FZRANO $
RJTY 201347Z AUTO 20007KT 10SM OVC012 17/16 A2991 RMK AO2 DZE1258RAB1258E08DZB08E09DZB14E16RAB16E26DZB26E32 OVC V BKN CIG 007 RWY18 SLP128 FZRANO $
RJTY 201332Z AUTO 20005KT 10SM SCT008 OVC017 17/16 A2992 RMK AO2 DZE1258RAB1258E08DZB08E09DZB14E16RAB16E26DZB26E32 CIG 010V019 CIG 013 RWY18 SLP132 FZRANO $
RJTY 201329Z AUTO 19006KT 10SM -DZ BKN010 OVC019 17/16 A2992 RMK AO2 DZE1258RAB1258E08DZB08E09DZB14E16RAB16E26DZB26 CIG 010V019 BKN V FEW SLP132 FZRANO $
RJTY 201314Z AUTO 19005KT 10SM -DZ SCT007 OVC019 17/16 A2993 RMK AO2 DZE1258RAB1258E08DZB08E09DZB14 CIG 007V021 CIG 005 RWY18 SLP136 FZRANO $
RJTY 201309Z AUTO 19005KT 10SM SCT007 OVC021 16/16 A2993 RMK AO2 DZE1258RAB1258E08DZB08E09 CIG 007V021 OVC V BKN CIG 005 RWY18 SLP136 FZRANO $
RJTY 201256Z AUTO 17006KT 10SM -DZ BKN007 BKN014 BKN045 17/15 A2994 RMK AO2 DZB19E26RAB26E43DZB43 CIG 007V037 BKN007 V SCT CIG 005 RWY18 SLP139 P0000 T01650154 FZRANO $
RJTY 201254Z AUTO 18004KT 10SM -DZ BKN007 BKN044 17/15 A2994 RMK AO2 DZB19E26RAB26E43DZB43 CIG 007V037 BKN007 V SCT CIG 005 RWY18 SLP139 FZRANO $
RJTY 201239Z AUTO 16006KT 10SM -RA FEW008 FEW030 SCT037 BKN045 17/15 A2995 RMK AO2 DZB19E26RAB26 SLP142 FZRANO $
RJTY 201219Z AUTO 17007KT 10SM -DZ FEW029 SCT038 BKN049 17/15 A2995 RMK AO2 DZB19 SLP142 FZRANO $
RJTY 201156Z AUTO 18007KT 10SM FEW026 SCT034 BKN047 BKN065 17/15 A2996 RMK AO2 SLP146 T01650147 10232 20165 58004 FZRANO $
RJTY 201056Z AUTO 18017G20KT 10SM FEW016 SCT022 BKN039 OVC050 19/15 A2998 RMK AO2 SLP153 T01860149 FZRANO $
RJTY 201041Z AUTO 19015G20KT 10SM SCT024 BKN030 OVC050 19/15 A2997 RMK AO2 SLP149 FZRANO $
RJTY 201032Z 19014G23KT 10SM BKN024 BKN030 OVC055 19/14 A2997 RMK CIG 024V055 BKN024 V SCT SLP150 FZRANO $
RJTY 200956Z AUTO 24005KT 10SM FEW027 SCT035 SCT042 BKN060 BKN070 18/14 A2998 RMK AO2 PK WND 18026/0857 SLP154 T01830142 FZRANO $
RJTY 200944Z AUTO 24011G19KT 10SM FEW027 FEW034 SCT055 OVC070 19/14 A2998 RMK AO2 WSHFT 38 SLP154 FZRANO $
RJTY 200856Z AUTO 20019G24KT 10SM FEW028 OVC070 20/13 A2997 RMK AO2 SLP150 T01980133 57003 FZRANO $
RJTY 200756Z AUTO 19015G22KT 10SM SCT033 BKN075 20/13 A2998 RMK AO2 SLP154 T02030125 FZRANO $
RJTY 200656Z AUTO 21014G21KT 10SM FEW034 FEW041 BKN075 21/13 A2998 RMK AO2 SLP154 T02080130 FZRANO $
RJTY 200556Z AUTO 21014G22KT 10SM FEW080 23/12 A2998 RMK AO2 SLP153 T02310115 10241 20198 57023 FZRANO $
RJTY 200456Z AUTO 20013G22KT 10SM SCT045 24/12 A3000 RMK AO2 SLP159 T02380121 FZRANO $
RJTY 200418Z AUTO 18017G22KT 10SM SCT042 BKN050 BKN190 23/12 A3001 RMK AO2 WSHFT 13 SLP163 FZRANO $
RJTY 200413Z AUTO 23010G20KT 10SM SCT042 SCT075 BKN190 23/12 A3002 RMK AO2 WSHFT 05 SLP166 FZRANO $
RJTY 200356Z AUTO 21013G21KT 10SM FEW075 SCT170 SCT200 23/12 A3003 RMK AO2 SLP170 T02310118 FZRANO $
RJTY 200256Z AUTO 22016G21KT 10SM FEW045 FEW170 24/11 A3005 RMK AO2 SLP176 T02390112 57014 FZRANO $
RJTY 200156Z AUTO 20018G22KT 10SM FEW075 FEW180 23/11 A3007 RMK AO2 SLP182 T02250106 FZRANO $
RJTY 200056Z AUTO 20009KT 10SM SCT032 SCT043 BKN065 20/12 A3008 RMK AO2 SLP187 T02020124 FZRANO $
RJTY 192356Z AUTO 19009KT 10SM FEW041 BKN065 20/13 A3009 RMK AO2 SLP190 60000 T01980130 10199 20132 57021 FZRANO $
RJTY 192256Z AUTO 18003KT 10SM FEW070 19/13 A3011 RMK AO2 DZE01 SLP197 P0000 T01890133 FZRANO $
RJTY 192246Z AUTO 22005KT 10SM FEW024 SCT070 19/13 A3012 RMK AO2 DZE01 SLP201 FZRANO $
RJTY 192231Z AUTO 20005KT 10SM BKN024 BKN031 18/13 A3013 RMK AO2 DZE01 CIG 024V031 CIG 023 RWY18 SLP204 FZRANO $
RJTY 192201Z AUTO 18003KT 10SM SCT049 BKN060 16/13 A3014 RMK AO2 DZE01 SLP208 FZRANO $
RJTY 192156Z AUTO 18003KT 10SM -DZ BKN048 BKN055 BKN075 16/13 A3014 RMK AO2 RAB10E22DZB22E25DZB51 SLP208 P0000 T01590130 FZRANO $
RJTY 192151Z AUTO 20003KT 10SM -DZ FEW020 BKN050 BKN065 16/13 A3014 RMK AO2 RAB10E22DZB22E25DZB51 SLP208 FZRANO $
RJTY 192126Z AUTO 00000KT 10SM FEW023 SCT032 OVC050 15/12 A3015 RMK AO2 RAB10E22DZB22E25 SLP212 FZRANO $
RJTY 192125Z AUTO 00000KT 10SM -DZ FEW023 SCT032 OVC050 15/12 A3015 RMK AO2 RAB10E22DZB22E25 SLP212 FZRANO $
RJTY 192110Z AUTO 00000KT 10SM -RA BKN025 OVC060 15/11 A3016 RMK AO2 RAB10 CIG 023 RWY18 SLP215 FZRANO $
RJTY 192056Z AUTO 00000KT 10SM BKN025 OVC065 15/11 A3016 RMK AO2 CIG 025V070 CIG 023 RWY18 SLP215 T01510111 55001 FZRANO $
RJTY 192026Z AUTO 00000KT 10SM SCT027 OVC070 15/11 A3015 RMK AO2 SLP211 FZRANO $
RJTY 191956Z AUTO 00000KT 10SM FEW022 SCT070 14/11 A3015 RMK AO2 SLP211 T01430109 FZRANO $
RJTY 191856Z AUTO 00000KT 10SM CLR 14/10 A3015 RMK AO2 SLP211 T01350101 FZRANO $
RJTY 191756Z AUTO 00000KT 10SM FEW025 15/11 A3016 RMK AO2 SLP214 T01450105 10175 20137 56013 FZRANO $
RJTY 191656Z AUTO 27005KT 10SM FEW070 15/11 A3016 RMK AO2 SLP214 T01520110 FZRANO $
RJTY 191556Z AUTO 27003KT 10SM FEW065 16/11 A3018 RMK AO2 SLP220 T01550109 FZRANO $
RJTY 191456Z AUTO 27004KT 10SM CLR 16/12 A3020 RMK AO2 SLP227 T01640117 402470149 58009 FZRANO $
RJTY 191356Z AUTO 19006KT 10SM BKN060 17/12 A3021 RMK AO2 SLP230 T01710124 FZRANO $
RJTY 191256Z AUTO 19009KT 10SM FEW027 BKN050 17/12 A3022 RMK AO2 SLP233 T01740123 FZRANO $
RJTY 191156Z AUTO 19009KT 10SM CLR 17/12 A3023 RMK AO2 SLP238 T01720121 10228 20172 52014 FZRANO $
RJTY 191056Z AUTO 19008KT 10SM CLR 18/12 A3022 RMK AO2 SLP234 T01790117 FZRANO $
RJTY 190956Z AUTO 19011KT 10SM CLR 18/11 A3021 RMK AO2 SLP231 T01840110 FZRANO $
RJTY 190856Z AUTO 20015KT 10SM CLR 20/10 A3018 RMK AO2 SLP221 T01960100 50004 FZRANO $
RJTY 190756Z AUTO 19014G22KT 10SM CLR 21/11 A3019 RMK AO2 SLP225 T02100108 FZRANO $
RJTY 190656Z AUTO 18016G21KT 10SM CLR 22/11 A3018 RMK AO2 SLP221 T02200105 FZRANO $
RJTY 190556Z AUTO 20015KT 10SM CLR 23/11 A3017 RMK AO2 SLP217 T02280109 10247 20204 57015 FZRANO $
RJTY 190456Z AUTO 18017KT 10SM CLR 23/11 A3019 RMK AO2 SLP223 T02310112 FZRANO $
RJTY 190356Z AUTO 18015G20KT 10SM FEW075 24/12 A3020 RMK AO2 SLP227 T02430116 FZRANO $
RJTY 190353Z AUTO 16016G20KT 10SM FEW075 24/12 A3020 RMK AO2 WSHFT 48 SLP227 FZRANO $
RJTY 190348Z AUTO 20013KT 10SM FEW080 25/11 A3020 RMK AO2 WSHFT 44 SLP226 FZRANO $
RJTY 190256Z AUTO 17010G16KT 10SM CLR 24/11 A3022 RMK AO2 SLP233 T02430106 57016 FZRANO $
RJTY 190156Z AUTO 15008KT 10SM FEW055 FEW075 SCT150 23/10 A3024 RMK AO2 SLP240 T02340101 FZRANO $
RJTY 190056Z AUTO 16006KT 10SM FEW045 22/11 A3025 RMK AO2 SLP244 T02210112 FZRANO $
RJTY 182356Z AUTO 17003KT 10SM FEW038 SCT065 20/12 A3026 RMK AO2 SLP248 T02030118 10205 20149 58002 FZRANO $